sensor_id;sensor_type;location;lat;lon;timestamp;pressure;altitude;pressure_sealevel;temperature
20058;BMP180;10189;49.546;7.906;2023-05-07T00:00:46;98072.00;;;16.70
20058;BMP180;10189;49.546;7.906;2023-05-07T00:03:12;98074.00;;;16.60
20058;BMP180;10189;49.546;7.906;2023-05-07T00:05:39;98062.00;;;16.60
20058;BMP180;10189;49.546;7.906;2023-05-07T00:08:05;98066.00;;;16.70
20058;BMP180;10189;49.546;7.906;2023-05-07T00:10:31;98072.00;;;16.60
20058;BMP180;10189;49.546;7.906;2023-05-07T00:12:57;98067.00;;;16.60
20058;BMP180;10189;49.546;7.906;2023-05-07T00:15:23;98063.00;;;16.60
20058;BMP180;10189;49.546;7.906;2023-05-07T00:17:48;98053.00;;;16.60
20058;BMP180;10189;49.546;7.906;2023-05-07T00:20:14;98062.00;;;16.60
20058;BMP180;10189;49.546;7.906;2023-05-07T00:22:41;98060.00;;;16.60
20058;BMP180;10189;49.546;7.906;2023-05-07T00:25:07;98064.00;;;16.50
20058;BMP180;10189;49.546;7.906;2023-05-07T00:27:33;98066.00;;;16.60
20058;BMP180;10189;49.546;7.906;2023-05-07T00:29:59;98057.00;;;16.50
20058;BMP180;10189;49.546;7.906;2023-05-07T00:32:25;98062.00;;;16.60
20058;BMP180;10189;49.546;7.906;2023-05-07T00:34:50;98058.00;;;16.50
20058;BMP180;10189;49.546;7.906;2023-05-07T00:37:16;98068.00;;;16.60
20058;BMP180;10189;49.546;7.906;2023-05-07T00:39:42;98068.00;;;16.50
20058;BMP180;10189;49.546;7.906;2023-05-07T00:42:08;98063.00;;;16.50
20058;BMP180;10189;49.546;7.906;2023-05-07T00:44:34;98064.00;;;16.40
20058;BMP180;10189;49.546;7.906;2023-05-07T00:47:03;98065.00;;;16.40
20058;BMP180;10189;49.546;7.906;2023-05-07T00:49:44;98057.00;;;16.20
20058;BMP180;10189;49.546;7.906;2023-05-07T00:52:14;98055.00;;;16.20
20058;BMP180;10189;49.546;7.906;2023-05-07T00:54:42;98043.00;;;16.30
20058;BMP180;10189;49.546;7.906;2023-05-07T00:57:10;98062.00;;;16.10
20058;BMP180;10189;49.546;7.906;2023-05-07T00:59:37;98056.00;;;16.00
20058;BMP180;10189;49.546;7.906;2023-05-07T01:02:03;98055.00;;;15.90
20058;BMP180;10189;49.546;7.906;2023-05-07T01:04:29;98043.00;;;15.90
20058;BMP180;10189;49.546;7.906;2023-05-07T01:06:57;98053.00;;;15.80
20058;BMP180;10189;49.546;7.906;2023-05-07T01:09:24;98058.00;;;15.70
20058;BMP180;10189;49.546;7.906;2023-05-07T01:11:52;98039.00;;;15.70
20058;BMP180;10189;49.546;7.906;2023-05-07T01:14:19;98056.00;;;15.60
20058;BMP180;10189;49.546;7.906;2023-05-07T01:16:47;98042.00;;;15.60
20058;BMP180;10189;49.546;7.906;2023-05-07T01:19:17;98050.00;;;15.60
20058;BMP180;10189;49.546;7.906;2023-05-07T01:21:47;98051.00;;;15.60
20058;BMP180;10189;49.546;7.906;2023-05-07T01:24:15;98046.00;;;15.50
20058;BMP180;10189;49.546;7.906;2023-05-07T01:26:43;98045.00;;;15.40
20058;BMP180;10189;49.546;7.906;2023-05-07T01:29:10;98047.00;;;15.30
20058;BMP180;10189;49.546;7.906;2023-05-07T01:31:38;98040.00;;;15.20
20058;BMP180;10189;49.546;7.906;2023-05-07T01:34:07;98050.00;;;15.20
20058;BMP180;10189;49.546;7.906;2023-05-07T01:36:37;98054.00;;;15.00
20058;BMP180;10189;49.546;7.906;2023-05-07T01:39:05;98041.00;;;15.00
20058;BMP180;10189;49.546;7.906;2023-05-07T01:41:32;98048.00;;;14.80
20058;BMP180;10189;49.546;7.906;2023-05-07T01:43:59;98053.00;;;14.90
20058;BMP180;10189;49.546;7.906;2023-05-07T01:46:26;98047.00;;;15.20
20058;BMP180;10189;49.546;7.906;2023-05-07T01:48:53;98040.00;;;15.20
20058;BMP180;10189;49.546;7.906;2023-05-07T01:51:19;98040.00;;;15.40
20058;BMP180;10189;49.546;7.906;2023-05-07T01:53:46;98043.00;;;15.50
20058;BMP180;10189;49.546;7.906;2023-05-07T01:56:19;98036.00;;;15.60
20058;BMP180;10189;49.546;7.906;2023-05-07T01:58:46;98036.00;;;15.50
20058;BMP180;10189;49.546;7.906;2023-05-07T02:01:14;98040.00;;;15.60
20058;BMP180;10189;49.546;7.906;2023-05-07T02:03:40;98031.00;;;15.60
20058;BMP180;10189;49.546;7.906;2023-05-07T02:06:13;98042.00;;;15.50
20058;BMP180;10189;49.546;7.906;2023-05-07T02:08:39;98044.00;;;15.70
20058;BMP180;10189;49.546;7.906;2023-05-07T02:11:05;98034.00;;;15.60
20058;BMP180;10189;49.546;7.906;2023-05-07T02:13:33;98054.00;;;15.50
20058;BMP180;10189;49.546;7.906;2023-05-07T02:16:01;98049.00;;;15.30
20058;BMP180;10189;49.546;7.906;2023-05-07T02:18:27;98048.00;;;15.20
20058;BMP180;10189;49.546;7.906;2023-05-07T02:20:53;98046.00;;;15.10
20058;BMP180;10189;49.546;7.906;2023-05-07T02:23:19;98040.00;;;14.90
20058;BMP180;10189;49.546;7.906;2023-05-07T02:25:45;98061.00;;;14.80
20058;BMP180;10189;49.546;7.906;2023-05-07T02:28:12;98049.00;;;14.60
20058;BMP180;10189;49.546;7.906;2023-05-07T02:31:00;98052.00;;;14.40
20058;BMP180;10189;49.546;7.906;2023-05-07T02:33:27;98059.00;;;14.20
20058;BMP180;10189;49.546;7.906;2023-05-07T02:35:53;98066.00;;;14.10
20058;BMP180;10189;49.546;7.906;2023-05-07T02:38:19;98066.00;;;14.00
20058;BMP180;10189;49.546;7.906;2023-05-07T02:40:45;98058.00;;;13.90
20058;BMP180;10189;49.546;7.906;2023-05-07T02:43:11;98068.00;;;13.80
20058;BMP180;10189;49.546;7.906;2023-05-07T02:45:38;98078.00;;;13.70
20058;BMP180;10189;49.546;7.906;2023-05-07T02:48:05;98073.00;;;13.60
20058;BMP180;10189;49.546;7.906;2023-05-07T02:50:32;98071.00;;;13.50
20058;BMP180;10189;49.546;7.906;2023-05-07T02:52:58;98071.00;;;13.50
20058;BMP180;10189;49.546;7.906;2023-05-07T02:55:24;98067.00;;;13.40
20058;BMP180;10189;49.546;7.906;2023-05-07T02:57:50;98063.00;;;13.30
20058;BMP180;10189;49.546;7.906;2023-05-07T03:00:18;98058.00;;;13.30
20058;BMP180;10189;49.546;7.906;2023-05-07T03:02:53;98070.00;;;13.30
20058;BMP180;10189;49.546;7.906;2023-05-07T03:05:19;98063.00;;;13.30
20058;BMP180;10189;49.546;7.906;2023-05-07T03:07:45;98052.00;;;13.40
20058;BMP180;10189;49.546;7.906;2023-05-07T03:10:12;98048.00;;;13.80
20058;BMP180;10189;49.546;7.906;2023-05-07T03:12:39;98047.00;;;14.00
20058;BMP180;10189;49.546;7.906;2023-05-07T03:15:05;98038.00;;;14.20
20058;BMP180;10189;49.546;7.906;2023-05-07T03:17:32;98034.00;;;14.30
20058;BMP180;10189;49.546;7.906;2023-05-07T03:19:57;98034.00;;;14.10
20058;BMP180;10189;49.546;7.906;2023-05-07T03:22:24;98028.00;;;14.20
20058;BMP180;10189;49.546;7.906;2023-05-07T03:24:50;98033.00;;;14.10
20058;BMP180;10189;49.546;7.906;2023-05-07T03:27:16;98034.00;;;14.10
20058;BMP180;10189;49.546;7.906;2023-05-07T03:29:42;98032.00;;;14.00
20058;BMP180;10189;49.546;7.906;2023-05-07T03:32:08;98025.00;;;14.00
20058;BMP180;10189;49.546;7.906;2023-05-07T03:34:35;98018.00;;;13.90
20058;BMP180;10189;49.546;7.906;2023-05-07T03:37:01;98026.00;;;13.70
20058;BMP180;10189;49.546;7.906;2023-05-07T03:39:26;98024.00;;;13.70
20058;BMP180;10189;49.546;7.906;2023-05-07T03:41:53;98028.00;;;13.80
20058;BMP180;10189;49.546;7.906;2023-05-07T03:44:19;98029.00;;;13.80
20058;BMP180;10189;49.546;7.906;2023-05-07T03:46:46;98038.00;;;13.70
20058;BMP180;10189;49.546;7.906;2023-05-07T03:49:11;98038.00;;;13.70
20058;BMP180;10189;49.546;7.906;2023-05-07T03:51:38;98035.00;;;13.60
20058;BMP180;10189;49.546;7.906;2023-05-07T03:54:05;98043.00;;;13.50
20058;BMP180;10189;49.546;7.906;2023-05-07T03:56:32;98048.00;;;13.40
20058;BMP180;10189;49.546;7.906;2023-05-07T03:59:00;98047.00;;;13.30
20058;BMP180;10189;49.546;7.906;2023-05-07T04:01:27;98046.00;;;13.20
20058;BMP180;10189;49.546;7.906;2023-05-07T04:03:53;98049.00;;;13.10
20058;BMP180;10189;49.546;7.906;2023-05-07T04:06:20;98049.00;;;13.10
20058;BMP180;10189;49.546;7.906;2023-05-07T04:08:47;98047.00;;;13.00
20058;BMP180;10189;49.546;7.906;2023-05-07T04:11:14;98063.00;;;13.00
20058;BMP180;10189;49.546;7.906;2023-05-07T04:13:39;98053.00;;;12.90
20058;BMP180;10189;49.546;7.906;2023-05-07T04:16:08;98060.00;;;12.90
20058;BMP180;10189;49.546;7.906;2023-05-07T04:18:35;98056.00;;;12.90
20058;BMP180;10189;49.546;7.906;2023-05-07T04:21:01;98055.00;;;13.00
20058;BMP180;10189;49.546;7.906;2023-05-07T04:23:27;98062.00;;;12.90
20058;BMP180;10189;49.546;7.906;2023-05-07T04:25:56;98060.00;;;12.80
20058;BMP180;10189;49.546;7.906;2023-05-07T04:28:37;98059.00;;;12.90
20058;BMP180;10189;49.546;7.906;2023-05-07T04:31:03;98056.00;;;12.90
20058;BMP180;10189;49.546;7.906;2023-05-07T04:33:32;98060.00;;;12.90
20058;BMP180;10189;49.546;7.906;2023-05-07T04:36:01;98058.00;;;12.90
20058;BMP180;10189;49.546;7.906;2023-05-07T04:38:30;98054.00;;;13.00
20058;BMP180;10189;49.546;7.906;2023-05-07T04:41:03;98052.00;;;13.10
20058;BMP180;10189;49.546;7.906;2023-05-07T04:43:32;98058.00;;;13.00
20058;BMP180;10189;49.546;7.906;2023-05-07T04:45:59;98058.00;;;13.10
20058;BMP180;10189;49.546;7.906;2023-05-07T04:48:26;98044.00;;;13.20
20058;BMP180;10189;49.546;7.906;2023-05-07T04:50:53;98055.00;;;13.30
20058;BMP180;10189;49.546;7.906;2023-05-07T04:53:20;98063.00;;;13.40
20058;BMP180;10189;49.546;7.906;2023-05-07T04:55:48;98054.00;;;13.50
20058;BMP180;10189;49.546;7.906;2023-05-07T04:58:14;98072.00;;;13.60
20058;BMP180;10189;49.546;7.906;2023-05-07T05:00:42;98059.00;;;13.80
20058;BMP180;10189;49.546;7.906;2023-05-07T05:03:08;98059.00;;;14.00
20058;BMP180;10189;49.546;7.906;2023-05-07T05:05:35;98053.00;;;14.20
20058;BMP180;10189;49.546;7.906;2023-05-07T05:08:02;98056.00;;;14.40
20058;BMP180;10189;49.546;7.906;2023-05-07T05:10:28;98046.00;;;14.60
20058;BMP180;10189;49.546;7.906;2023-05-07T05:12:55;98061.00;;;14.90
20058;BMP180;10189;49.546;7.906;2023-05-07T05:15:22;98058.00;;;15.00
20058;BMP180;10189;49.546;7.906;2023-05-07T05:17:48;98063.00;;;15.20
20058;BMP180;10189;49.546;7.906;2023-05-07T05:20:15;98065.00;;;15.40
20058;BMP180;10189;49.546;7.906;2023-05-07T05:22:44;98072.00;;;15.40
20058;BMP180;10189;49.546;7.906;2023-05-07T05:25:12;98069.00;;;15.60
20058;BMP180;10189;49.546;7.906;2023-05-07T05:27:38;98067.00;;;15.50
20058;BMP180;10189;49.546;7.906;2023-05-07T05:30:06;98076.00;;;15.50
20058;BMP180;10189;49.546;7.906;2023-05-07T05:32:34;98077.00;;;15.40
20058;BMP180;10189;49.546;7.906;2023-05-07T05:35:00;98077.00;;;15.50
20058;BMP180;10189;49.546;7.906;2023-05-07T05:37:26;98076.00;;;15.40
20058;BMP180;10189;49.546;7.906;2023-05-07T05:39:53;98072.00;;;15.40
20058;BMP180;10189;49.546;7.906;2023-05-07T05:42:21;98080.00;;;15.60
20058;BMP180;10189;49.546;7.906;2023-05-07T05:44:46;98071.00;;;15.80
20058;BMP180;10189;49.546;7.906;2023-05-07T05:47:13;98066.00;;;15.80
20058;BMP180;10189;49.546;7.906;2023-05-07T05:49:40;98063.00;;;15.90
20058;BMP180;10189;49.546;7.906;2023-05-07T05:52:07;98060.00;;;16.10
20058;BMP180;10189;49.546;7.906;2023-05-07T05:54:33;98060.00;;;16.30
20058;BMP180;10189;49.546;7.906;2023-05-07T05:56:59;98048.00;;;16.40
20058;BMP180;10189;49.546;7.906;2023-05-07T05:59:25;98058.00;;;16.50
20058;BMP180;10189;49.546;7.906;2023-05-07T06:01:52;98055.00;;;16.50
20058;BMP180;10189;49.546;7.906;2023-05-07T06:04:18;98054.00;;;16.50
20058;BMP180;10189;49.546;7.906;2023-05-07T06:06:44;98054.00;;;16.50
20058;BMP180;10189;49.546;7.906;2023-05-07T06:09:10;98064.00;;;16.60
20058;BMP180;10189;49.546;7.906;2023-05-07T06:11:41;98065.00;;;16.70
20058;BMP180;10189;49.546;7.906;2023-05-07T06:14:07;98064.00;;;16.70
20058;BMP180;10189;49.546;7.906;2023-05-07T06:16:33;98069.00;;;16.80
20058;BMP180;10189;49.546;7.906;2023-05-07T06:19:00;98058.00;;;16.80
20058;BMP180;10189;49.546;7.906;2023-05-07T06:21:26;98053.00;;;16.90
20058;BMP180;10189;49.546;7.906;2023-05-07T06:23:51;98063.00;;;16.80
20058;BMP180;10189;49.546;7.906;2023-05-07T06:26:18;98049.00;;;16.90
20058;BMP180;10189;49.546;7.906;2023-05-07T06:28:46;98049.00;;;17.10
20058;BMP180;10189;49.546;7.906;2023-05-07T06:31:19;98054.00;;;17.30
20058;BMP180;10189;49.546;7.906;2023-05-07T06:33:59;98060.00;;;17.50
20058;BMP180;10189;49.546;7.906;2023-05-07T06:36:31;98048.00;;;17.50
20058;BMP180;10189;49.546;7.906;2023-05-07T06:38:59;98063.00;;;17.40
20058;BMP180;10189;49.546;7.906;2023-05-07T06:41:25;98065.00;;;17.60
20058;BMP180;10189;49.546;7.906;2023-05-07T06:43:52;98059.00;;;17.70
20058;BMP180;10189;49.546;7.906;2023-05-07T06:46:29;98062.00;;;17.50
20058;BMP180;10189;49.546;7.906;2023-05-07T06:48:56;98063.00;;;17.70
20058;BMP180;10189;49.546;7.906;2023-05-07T06:51:22;98059.00;;;17.50
20058;BMP180;10189;49.546;7.906;2023-05-07T06:53:48;98076.00;;;17.20
20058;BMP180;10189;49.546;7.906;2023-05-07T06:56:14;98083.00;;;17.20
20058;BMP180;10189;49.546;7.906;2023-05-07T06:58:41;98082.00;;;17.40
20058;BMP180;10189;49.546;7.906;2023-05-07T07:01:08;98076.00;;;17.60
20058;BMP180;10189;49.546;7.906;2023-05-07T07:03:35;98090.00;;;17.60
20058;BMP180;10189;49.546;7.906;2023-05-07T07:06:01;98095.00;;;17.70
20058;BMP180;10189;49.546;7.906;2023-05-07T07:08:29;98089.00;;;17.70
20058;BMP180;10189;49.546;7.906;2023-05-07T07:10:55;98096.00;;;17.90
20058;BMP180;10189;49.546;7.906;2023-05-07T07:13:22;98097.00;;;17.90
20058;BMP180;10189;49.546;7.906;2023-05-07T07:15:48;98109.00;;;17.90
20058;BMP180;10189;49.546;7.906;2023-05-07T07:18:14;98101.00;;;18.00
20058;BMP180;10189;49.546;7.906;2023-05-07T07:20:41;98104.00;;;17.90
20058;BMP180;10189;49.546;7.906;2023-05-07T07:23:10;98102.00;;;17.90
20058;BMP180;10189;49.546;7.906;2023-05-07T07:25:35;98102.00;;;18.00
20058;BMP180;10189;49.546;7.906;2023-05-07T07:28:01;98096.00;;;17.90
20058;BMP180;10189;49.546;7.906;2023-05-07T07:30:28;98105.00;;;17.90
20058;BMP180;10189;49.546;7.906;2023-05-07T07:32:54;98096.00;;;17.80
20058;BMP180;10189;49.546;7.906;2023-05-07T07:35:26;98092.00;;;18.00
20058;BMP180;10189;49.546;7.906;2023-05-07T07:37:52;98094.00;;;18.20
20058;BMP180;10189;49.546;7.906;2023-05-07T07:40:18;98079.00;;;18.50
20058;BMP180;10189;49.546;7.906;2023-05-07T07:42:45;98092.00;;;18.60
20058;BMP180;10189;49.546;7.906;2023-05-07T07:45:11;98093.00;;;18.70
20058;BMP180;10189;49.546;7.906;2023-05-07T07:47:42;98095.00;;;18.80
20058;BMP180;10189;49.546;7.906;2023-05-07T07:50:09;98096.00;;;19.10
20058;BMP180;10189;49.546;7.906;2023-05-07T07:52:35;98089.00;;;19.00
20058;BMP180;10189;49.546;7.906;2023-05-07T07:55:02;98102.00;;;19.20
20058;BMP180;10189;49.546;7.906;2023-05-07T07:57:28;98095.00;;;19.20
20058;BMP180;10189;49.546;7.906;2023-05-07T07:59:54;98094.00;;;19.30
20058;BMP180;10189;49.546;7.906;2023-05-07T08:02:21;98095.00;;;19.40
20058;BMP180;10189;49.546;7.906;2023-05-07T08:04:48;98092.00;;;19.10
20058;BMP180;10189;49.546;7.906;2023-05-07T08:07:14;98088.00;;;19.10
20058;BMP180;10189;49.546;7.906;2023-05-07T08:09:43;98094.00;;;19.30
20058;BMP180;10189;49.546;7.906;2023-05-07T08:12:10;98089.00;;;19.40
20058;BMP180;10189;49.546;7.906;2023-05-07T08:14:37;98093.00;;;19.40
20058;BMP180;10189;49.546;7.906;2023-05-07T08:17:05;98095.00;;;19.60
20058;BMP180;10189;49.546;7.906;2023-05-07T08:19:32;98097.00;;;19.60
20058;BMP180;10189;49.546;7.906;2023-05-07T08:21:58;98097.00;;;19.60
20058;BMP180;10189;49.546;7.906;2023-05-07T08:24:25;98113.00;;;19.60
20058;BMP180;10189;49.546;7.906;2023-05-07T08:26:51;98093.00;;;19.70
20058;BMP180;10189;49.546;7.906;2023-05-07T08:29:17;98109.00;;;20.00
20058;BMP180;10189;49.546;7.906;2023-05-07T08:31:43;98104.00;;;20.20
20058;BMP180;10189;49.546;7.906;2023-05-07T08:34:09;98103.00;;;19.90
20058;BMP180;10189;49.546;7.906;2023-05-07T08:36:37;98103.00;;;20.20
20058;BMP180;10189;49.546;7.906;2023-05-07T08:39:03;98106.00;;;20.00
20058;BMP180;10189;49.546;7.906;2023-05-07T08:41:31;98110.00;;;19.50
20058;BMP180;10189;49.546;7.906;2023-05-07T08:43:59;98105.00;;;19.60
20058;BMP180;10189;49.546;7.906;2023-05-07T08:46:31;98104.00;;;19.90
20058;BMP180;10189;49.546;7.906;2023-05-07T08:48:58;98099.00;;;20.60
20058;BMP180;10189;49.546;7.906;2023-05-07T08:51:25;98094.00;;;20.60
20058;BMP180;10189;49.546;7.906;2023-05-07T08:53:51;98100.00;;;20.70
20058;BMP180;10189;49.546;7.906;2023-05-07T08:56:23;98102.00;;;20.70
20058;BMP180;10189;49.546;7.906;2023-05-07T08:58:51;98099.00;;;20.60
20058;BMP180;10189;49.546;7.906;2023-05-07T09:01:17;98101.00;;;20.30
20058;BMP180;10189;49.546;7.906;2023-05-07T09:03:47;98093.00;;;20.90
20058;BMP180;10189;49.546;7.906;2023-05-07T09:06:15;98104.00;;;20.80
20058;BMP180;10189;49.546;7.906;2023-05-07T09:08:53;98096.00;;;21.30
20058;BMP180;10189;49.546;7.906;2023-05-07T09:11:22;98098.00;;;21.60
20058;BMP180;10189;49.546;7.906;2023-05-07T09:13:58;98099.00;;;21.60
20058;BMP180;10189;49.546;7.906;2023-05-07T09:16:29;98102.00;;;21.80
20058;BMP180;10189;49.546;7.906;2023-05-07T09:19:00;98112.00;;;21.20
20058;BMP180;10189;49.546;7.906;2023-05-07T09:21:27;98109.00;;;21.40
20058;BMP180;10189;49.546;7.906;2023-05-07T09:23:55;98099.00;;;21.10
20058;BMP180;10189;49.546;7.906;2023-05-07T09:26:27;98099.00;;;21.10
20058;BMP180;10189;49.546;7.906;2023-05-07T09:28:54;98100.00;;;21.30
20058;BMP180;10189;49.546;7.906;2023-05-07T09:31:20;98089.00;;;21.70
20058;BMP180;10189;49.546;7.906;2023-05-07T09:33:48;98083.00;;;22.10
20058;BMP180;10189;49.546;7.906;2023-05-07T09:36:15;98085.00;;;21.80
20058;BMP180;10189;49.546;7.906;2023-05-07T09:38:42;98094.00;;;22.00
20058;BMP180;10189;49.546;7.906;2023-05-07T09:41:11;98094.00;;;22.30
20058;BMP180;10189;49.546;7.906;2023-05-07T09:43:44;98089.00;;;22.00
20058;BMP180;10189;49.546;7.906;2023-05-07T09:46:14;98084.00;;;21.90
20058;BMP180;10189;49.546;7.906;2023-05-07T09:48:47;98079.00;;;22.20
20058;BMP180;10189;49.546;7.906;2023-05-07T09:51:45;98081.00;;;21.80
20058;BMP180;10189;49.546;7.906;2023-05-07T09:54:15;98075.00;;;22.20
20058;BMP180;10189;49.546;7.906;2023-05-07T09:56:48;98076.00;;;22.60
20058;BMP180;10189;49.546;7.906;2023-05-07T09:59:17;98080.00;;;23.20
20058;BMP180;10189;49.546;7.906;2023-05-07T10:01:46;98074.00;;;23.50
20058;BMP180;10189;49.546;7.906;2023-05-07T10:04:14;98078.00;;;23.70
20058;BMP180;10189;49.546;7.906;2023-05-07T10:06:43;98080.00;;;23.30
20058;BMP180;10189;49.546;7.906;2023-05-07T10:09:12;98075.00;;;23.30
20058;BMP180;10189;49.546;7.906;2023-05-07T10:11:41;98069.00;;;23.00
20058;BMP180;10189;49.546;7.906;2023-05-07T10:14:10;98078.00;;;23.20
20058;BMP180;10189;49.546;7.906;2023-05-07T10:16:37;98069.00;;;22.40
20058;BMP180;10189;49.546;7.906;2023-05-07T10:19:08;98062.00;;;22.30
20058;BMP180;10189;49.546;7.906;2023-05-07T10:21:55;98067.00;;;22.60
20058;BMP180;10189;49.546;7.906;2023-05-07T10:24:32;98055.00;;;23.10
20058;BMP180;10189;49.546;7.906;2023-05-07T10:27:10;98058.00;;;23.30
20058;BMP180;10189;49.546;7.906;2023-05-07T10:29:48;98064.00;;;23.00
20058;BMP180;10189;49.546;7.906;2023-05-07T10:34:56;98064.00;;;23.20
20058;BMP180;10189;49.546;7.906;2023-05-07T10:37:24;98069.00;;;23.10
20058;BMP180;10189;49.546;7.906;2023-05-07T10:39:52;98069.00;;;23.20
20058;BMP180;10189;49.546;7.906;2023-05-07T10:42:19;98068.00;;;23.50
20058;BMP180;10189;49.546;7.906;2023-05-07T10:44:49;98078.00;;;23.20
20058;BMP180;10189;49.546;7.906;2023-05-07T10:47:23;98076.00;;;23.30
20058;BMP180;10189;49.546;7.906;2023-05-07T10:52:24;98065.00;;;23.20
20058;BMP180;10189;49.546;7.906;2023-05-07T11:00:57;98061.00;;;23.30
20058;BMP180;10189;49.546;7.906;2023-05-07T11:03:29;98056.00;;;23.10
20058;BMP180;10189;49.546;7.906;2023-05-07T11:06:11;98061.00;;;23.30
20058;BMP180;10189;49.546;7.906;2023-05-07T11:08:58;98051.00;;;23.60
20058;BMP180;10189;49.546;7.906;2023-05-07T11:11:50;98046.00;;;23.90
20058;BMP180;10189;49.546;7.906;2023-05-07T11:14:45;98053.00;;;23.90
20058;BMP180;10189;49.546;7.906;2023-05-07T11:17:22;98060.00;;;23.70
20058;BMP180;10189;49.546;7.906;2023-05-07T11:19:56;98048.00;;;23.70
20058;BMP180;10189;49.546;7.906;2023-05-07T11:22:40;98058.00;;;23.90
20058;BMP180;10189;49.546;7.906;2023-05-07T11:25:18;98047.00;;;24.00
20058;BMP180;10189;49.546;7.906;2023-05-07T11:27:47;98043.00;;;24.30
20058;BMP180;10189;49.546;7.906;2023-05-07T11:30:22;98051.00;;;24.30
20058;BMP180;10189;49.546;7.906;2023-05-07T11:32:49;98043.00;;;24.40
20058;BMP180;10189;49.546;7.906;2023-05-07T11:35:17;98033.00;;;24.00
20058;BMP180;10189;49.546;7.906;2023-05-07T11:37:46;98034.00;;;23.40
20058;BMP180;10189;49.546;7.906;2023-05-07T11:40:13;98034.00;;;23.40
20058;BMP180;10189;49.546;7.906;2023-05-07T11:42:40;98049.00;;;23.10
20058;BMP180;10189;49.546;7.906;2023-05-07T11:45:08;98048.00;;;22.70
20058;BMP180;10189;49.546;7.906;2023-05-07T11:47:38;98055.00;;;22.90
20058;BMP180;10189;49.546;7.906;2023-05-07T11:50:09;98057.00;;;22.80
20058;BMP180;10189;49.546;7.906;2023-05-07T11:52:36;98054.00;;;22.90
20058;BMP180;10189;49.546;7.906;2023-05-07T11:55:06;98048.00;;;23.20
20058;BMP180;10189;49.546;7.906;2023-05-07T11:57:33;98037.00;;;23.40
20058;BMP180;10189;49.546;7.906;2023-05-07T12:00:01;98051.00;;;23.30
20058;BMP180;10189;49.546;7.906;2023-05-07T12:02:38;98046.00;;;23.20
20058;BMP180;10189;49.546;7.906;2023-05-07T12:05:05;98052.00;;;23.20
20058;BMP180;10189;49.546;7.906;2023-05-07T12:09:58;98051.00;;;22.90
20058;BMP180;10189;49.546;7.906;2023-05-07T12:12:24;98057.00;;;22.90
20058;BMP180;10189;49.546;7.906;2023-05-07T12:14:52;98055.00;;;22.70
20058;BMP180;10189;49.546;7.906;2023-05-07T12:17:19;98054.00;;;22.90
20058;BMP180;10189;49.546;7.906;2023-05-07T12:19:45;98061.00;;;22.90
20058;BMP180;10189;49.546;7.906;2023-05-07T12:22:12;98071.00;;;23.00
20058;BMP180;10189;49.546;7.906;2023-05-07T12:24:56;98070.00;;;23.20
20058;BMP180;10189;49.546;7.906;2023-05-07T12:27:22;98076.00;;;23.30
20058;BMP180;10189;49.546;7.906;2023-05-07T12:29:50;98073.00;;;23.30
20058;BMP180;10189;49.546;7.906;2023-05-07T12:32:19;98070.00;;;22.90
20058;BMP180;10189;49.546;7.906;2023-05-07T12:34:50;98078.00;;;22.90
20058;BMP180;10189;49.546;7.906;2023-05-07T12:37:26;98071.00;;;23.20
20058;BMP180;10189;49.546;7.906;2023-05-07T12:40:09;98069.00;;;23.40
20058;BMP180;10189;49.546;7.906;2023-05-07T12:42:38;98072.00;;;23.50
20058;BMP180;10189;49.546;7.906;2023-05-07T12:45:13;98081.00;;;23.10
20058;BMP180;10189;49.546;7.906;2023-05-07T12:47:47;98091.00;;;23.10
20058;BMP180;10189;49.546;7.906;2023-05-07T12:50:16;98081.00;;;23.00
20058;BMP180;10189;49.546;7.906;2023-05-07T12:52:45;98077.00;;;22.80
20058;BMP180;10189;49.546;7.906;2023-05-07T12:55:15;98066.00;;;22.80
20058;BMP180;10189;49.546;7.906;2023-05-07T12:57:47;98069.00;;;22.90
20058;BMP180;10189;49.546;7.906;2023-05-07T13:00:41;98062.00;;;22.70
20058;BMP180;10189;49.546;7.906;2023-05-07T13:03:09;98063.00;;;22.70
20058;BMP180;10189;49.546;7.906;2023-05-07T13:05:35;98065.00;;;22.70
20058;BMP180;10189;49.546;7.906;2023-05-07T13:08:01;98059.00;;;22.70
20058;BMP180;10189;49.546;7.906;2023-05-07T13:10:27;98060.00;;;22.90
20058;BMP180;10189;49.546;7.906;2023-05-07T13:12:54;98050.00;;;22.90
20058;BMP180;10189;49.546;7.906;2023-05-07T13:15:22;98053.00;;;22.70
20058;BMP180;10189;49.546;7.906;2023-05-07T13:17:48;98053.00;;;22.90
20058;BMP180;10189;49.546;7.906;2023-05-07T13:20:14;98062.00;;;22.90
20058;BMP180;10189;49.546;7.906;2023-05-07T13:22:41;98062.00;;;22.90
20058;BMP180;10189;49.546;7.906;2023-05-07T13:25:07;98067.00;;;23.10
20058;BMP180;10189;49.546;7.906;2023-05-07T13:27:33;98067.00;;;23.20
20058;BMP180;10189;49.546;7.906;2023-05-07T13:30:04;98067.00;;;23.20
20058;BMP180;10189;49.546;7.906;2023-05-07T13:32:30;98067.00;;;23.30
20058;BMP180;10189;49.546;7.906;2023-05-07T13:34:58;98065.00;;;23.20
20058;BMP180;10189;49.546;7.906;2023-05-07T13:37:24;98070.00;;;23.10
20058;BMP180;10189;49.546;7.906;2023-05-07T13:39:50;98073.00;;;23.10
20058;BMP180;10189;49.546;7.906;2023-05-07T13:42:16;98072.00;;;23.00
20058;BMP180;10189;49.546;7.906;2023-05-07T13:44:42;98069.00;;;22.80
20058;BMP180;10189;49.546;7.906;2023-05-07T13:47:09;98074.00;;;22.70
20058;BMP180;10189;49.546;7.906;2023-05-07T13:49:35;98073.00;;;22.30
20058;BMP180;10189;49.546;7.906;2023-05-07T13:52:01;98088.00;;;22.10
20058;BMP180;10189;49.546;7.906;2023-05-07T13:54:27;98084.00;;;22.10
20058;BMP180;10189;49.546;7.906;2023-05-07T13:56:53;98095.00;;;22.00
20058;BMP180;10189;49.546;7.906;2023-05-07T13:59:19;98089.00;;;21.80
20058;BMP180;10189;49.546;7.906;2023-05-07T14:01:45;98091.00;;;21.60
20058;BMP180;10189;49.546;7.906;2023-05-07T14:04:11;98098.00;;;21.30
20058;BMP180;10189;49.546;7.906;2023-05-07T14:06:36;98097.00;;;20.80
20058;BMP180;10189;49.546;7.906;2023-05-07T14:09:03;98105.00;;;20.50
20058;BMP180;10189;49.546;7.906;2023-05-07T14:11:29;98104.00;;;20.40
20058;BMP180;10189;49.546;7.906;2023-05-07T14:13:55;98111.00;;;20.20
20058;BMP180;10189;49.546;7.906;2023-05-07T14:16:22;98102.00;;;20.30
20058;BMP180;10189;49.546;7.906;2023-05-07T14:18:48;98117.00;;;20.10
20058;BMP180;10189;49.546;7.906;2023-05-07T14:21:14;98114.00;;;20.10
20058;BMP180;10189;49.546;7.906;2023-05-07T14:23:40;98113.00;;;20.00
20058;BMP180;10189;49.546;7.906;2023-05-07T14:26:06;98115.00;;;19.90
20058;BMP180;10189;49.546;7.906;2023-05-07T14:28:32;98122.00;;;19.90